createdAt,value
2017-08-28T00:03:57.203Z,95986
2017-08-28T00:09:25.357Z,95981
2017-08-28T00:14:53.495Z,95981
2017-08-28T00:20:21.638Z,95965
2017-08-28T00:25:49.857Z,95955
2017-08-28T00:31:18.017Z,95959
2017-08-28T00:36:46.416Z,95972
2017-08-28T00:42:15.530Z,95975
2017-08-28T00:47:43.689Z,95964
2017-08-28T00:53:11.944Z,95964
2017-08-28T00:58:40.301Z,95962
2017-08-28T01:04:08.449Z,95972
2017-08-28T01:09:36.606Z,95960
2017-08-28T01:15:04.783Z,95957
2017-08-28T01:20:32.922Z,95970
2017-08-28T01:26:01.045Z,95965
2017-08-28T01:31:29.184Z,95962
2017-08-28T01:36:57.350Z,95958
2017-08-28T01:42:25.479Z,95943
2017-08-28T01:47:53.645Z,95946
2017-08-28T01:53:21.820Z,95944
2017-08-28T01:58:49.976Z,95946
2017-08-28T02:04:18.114Z,95934
2017-08-28T02:09:46.393Z,95935
2017-08-28T02:15:14.722Z,95943
2017-08-28T02:20:42.917Z,95943
2017-08-28T02:26:11.141Z,95945
2017-08-28T02:31:39.311Z,95942
2017-08-28T02:37:07.484Z,95949
2017-08-28T02:42:35.658Z,95953
2017-08-28T02:48:03.812Z,95942
2017-08-28T02:53:31.972Z,95946
2017-08-28T02:59:00.158Z,95935
2017-08-28T03:04:28.351Z,95928
2017-08-28T03:09:56.490Z,95930
2017-08-28T03:15:24.659Z,95925
2017-08-28T03:20:52.814Z,95925
2017-08-28T03:26:20.969Z,95925
2017-08-28T03:31:49.144Z,95924
2017-08-28T03:37:18.267Z,95925
2017-08-28T03:42:46.469Z,95924
2017-08-28T03:48:14.727Z,95918
2017-08-28T03:53:42.900Z,95923
2017-08-28T03:59:11.089Z,95928
2017-08-28T04:04:39.284Z,95921
2017-08-28T04:10:08.200Z,95914
2017-08-28T04:15:36.372Z,95923
2017-08-28T04:21:04.528Z,95926
2017-08-28T04:26:32.675Z,95928
2017-08-28T04:32:00.832Z,95926
2017-08-28T04:37:29.002Z,95928
2017-08-28T04:42:57.185Z,95921
2017-08-28T04:48:25.352Z,95926
2017-08-28T04:53:53.519Z,95925
2017-08-28T04:59:21.676Z,95922
2017-08-28T05:04:49.832Z,95925
2017-08-28T05:10:17.976Z,95924
2017-08-28T05:15:46.155Z,95931
2017-08-28T05:21:14.349Z,95935
2017-08-28T05:26:42.527Z,95937
2017-08-28T05:32:10.683Z,95937
2017-08-28T05:37:38.869Z,95939
2017-08-28T05:43:07.041Z,95937
2017-08-28T05:48:35.205Z,95940
2017-08-28T05:54:03.383Z,95930
2017-08-28T05:59:31.552Z,95918
2017-08-28T06:04:59.705Z,95918
2017-08-28T06:10:27.848Z,95934
2017-08-28T06:15:56.199Z,95922
2017-08-28T06:21:24.357Z,95932
2017-08-28T06:26:52.508Z,95939
2017-08-28T06:32:20.651Z,95940
2017-08-28T06:37:48.814Z,95952
2017-08-28T06:43:16.990Z,95962
2017-08-28T06:48:45.903Z,95966
2017-08-28T06:54:14.061Z,95970
2017-08-28T06:59:42.236Z,95967
2017-08-28T07:05:10.432Z,95982
2017-08-28T07:10:38.574Z,95985
2017-08-28T07:16:06.803Z,95980
2017-08-28T07:21:34.968Z,95979
2017-08-28T07:27:03.135Z,95981
2017-08-28T07:32:31.684Z,95971
2017-08-28T07:37:59.846Z,95965
2017-08-28T07:43:28.016Z,95975
2017-08-28T07:48:56.150Z,95959
2017-08-28T07:54:24.309Z,95974
2017-08-28T07:59:52.476Z,95982
2017-08-28T08:05:20.645Z,95990
2017-08-28T08:10:48.809Z,95990
2017-08-28T08:16:17.692Z,95985
2017-08-28T08:21:45.874Z,95982
2017-08-28T08:27:14.063Z,95993
2017-08-28T08:32:42.242Z,96013
2017-08-28T08:38:10.397Z,95993
2017-08-28T08:43:38.583Z,96012
2017-08-28T08:49:06.766Z,96014
2017-08-28T08:54:35.683Z,96006
2017-08-28T09:00:03.838Z,96012
2017-08-28T09:05:31.994Z,96009
2017-08-28T09:11:00.138Z,96014
2017-08-28T09:16:28.287Z,96018
2017-08-28T09:21:56.442Z,96008
2017-08-28T09:27:24.943Z,96015
2017-08-28T09:32:53.087Z,96009
2017-08-28T09:38:21.241Z,96035
2017-08-28T09:43:49.395Z,96037
2017-08-28T09:49:17.564Z,96022
2017-08-28T09:54:45.756Z,96036
2017-08-28T10:00:13.933Z,96049
2017-08-28T10:05:42.363Z,96049
2017-08-28T10:11:10.541Z,96050
2017-08-28T10:16:38.700Z,96024
2017-08-28T10:22:06.865Z,96031
2017-08-28T10:27:35.010Z,96033
2017-08-28T10:33:03.180Z,96014
2017-08-28T10:38:31.336Z,96006
2017-08-28T10:43:59.490Z,95997
2017-08-28T10:49:27.653Z,95993
2017-08-28T10:54:55.794Z,95997
2017-08-28T11:00:23.943Z,95977
2017-08-28T11:05:52.099Z,95980
2017-08-28T11:11:20.247Z,95975
2017-08-28T11:16:48.413Z,95963
2017-08-28T11:22:16.579Z,95962
2017-08-28T11:27:44.740Z,95963
2017-08-28T11:33:12.941Z,95962
2017-08-28T11:38:41.090Z,95962
2017-08-28T11:44:09.285Z,95964
2017-08-28T11:49:37.439Z,95954
2017-08-28T11:55:05.582Z,95952
2017-08-28T12:00:33.746Z,95950
2017-08-28T12:06:01.886Z,95941
2017-08-28T12:11:30.046Z,95939
2017-08-28T12:16:58.202Z,95937
2017-08-28T12:22:26.356Z,95936
2017-08-28T12:27:54.511Z,95927
2017-08-28T12:33:22.677Z,95923
2017-08-28T12:38:50.845Z,95920
2017-08-28T12:44:19.029Z,95914
2017-08-28T12:49:47.183Z,95916
2017-08-28T12:55:15.360Z,95923
2017-08-28T13:00:43.556Z,95928
2017-08-28T13:06:11.728Z,95931
2017-08-28T13:11:39.882Z,95932
2017-08-28T13:17:08.045Z,95938
2017-08-28T13:22:36.202Z,95923
2017-08-28T13:28:04.378Z,95923
2017-08-28T13:33:32.533Z,95916
2017-08-28T13:39:00.709Z,95913
2017-08-28T13:44:28.862Z,95910
2017-08-28T13:49:57.048Z,95905
2017-08-28T13:55:25.219Z,95899
2017-08-28T14:00:53.382Z,95899
2017-08-28T14:06:21.526Z,95861
2017-08-28T14:11:49.687Z,95835
2017-08-28T14:17:17.833Z,95832
2017-08-28T14:22:46.003Z,95825
2017-08-28T14:28:14.156Z,95822
2017-08-28T14:33:42.331Z,95876
2017-08-28T14:39:10.487Z,95835
2017-08-28T14:44:38.644Z,95822
2017-08-28T14:50:06.820Z,95831
2017-08-28T14:55:34.968Z,95830
2017-08-28T15:01:03.122Z,95843
2017-08-28T15:06:31.284Z,95905
2017-08-28T15:11:59.437Z,95903
2017-08-28T15:17:27.606Z,95902
2017-08-28T15:22:55.767Z,95905
2017-08-28T15:28:23.926Z,95889
2017-08-28T15:33:52.089Z,95883
2017-08-28T15:39:20.242Z,95886
2017-08-28T15:44:48.395Z,95893
2017-08-28T15:50:16.621Z,95893
2017-08-28T15:55:44.797Z,95895
2017-08-28T16:01:12.988Z,95898
2017-08-28T16:06:41.162Z,95909
2017-08-28T16:12:09.320Z,95904
2017-08-28T16:17:37.493Z,95900
2017-08-28T16:23:05.932Z,95910
2017-08-28T16:28:34.101Z,95910
2017-08-28T16:34:02.254Z,95900
2017-08-28T16:39:30.433Z,95915
2017-08-28T16:44:58.596Z,95913
2017-08-28T16:50:26.751Z,95904
2017-08-28T16:55:54.925Z,95905
2017-08-28T17:01:23.724Z,95910
2017-08-28T17:06:52.014Z,95913
2017-08-28T17:12:20.176Z,95909
2017-08-28T17:17:48.550Z,95909
2017-08-28T17:23:17.052Z,95907
2017-08-28T17:28:45.279Z,95911
2017-08-28T17:34:13.488Z,95913
2017-08-28T17:39:41.639Z,95907
2017-08-28T17:45:09.785Z,95915
2017-08-28T17:50:37.956Z,95908
2017-08-28T17:56:06.149Z,95909
2017-08-28T18:01:34.435Z,95915
2017-08-28T18:07:03.746Z,95919
2017-08-28T18:12:31.897Z,95911
2017-08-28T18:18:00.066Z,95913
2017-08-28T18:23:28.249Z,95924
2017-08-28T18:28:56.447Z,95926
2017-08-28T18:34:24.594Z,95922
2017-08-28T18:39:52.756Z,95928
2017-08-28T18:45:20.922Z,95929
2017-08-28T18:50:49.100Z,95938
2017-08-28T18:56:18.971Z,95940
2017-08-28T19:01:47.152Z,95939
2017-08-28T19:07:15.319Z,95948
2017-08-28T19:12:43.989Z,95953
2017-08-28T19:18:12.645Z,95951
2017-08-28T19:23:40.831Z,95959
2017-08-28T19:29:09.014Z,95960
2017-08-28T19:34:42.658Z,95964
2017-08-28T19:40:10.842Z,95960
2017-08-28T19:45:39.010Z,95956
2017-08-28T19:51:07.322Z,95966
2017-08-28T19:56:35.476Z,95978
2017-08-28T20:02:03.669Z,95979
2017-08-28T20:07:31.836Z,95985
2017-08-28T20:13:00.978Z,95991
2017-08-28T20:18:29.136Z,95987
2017-08-28T20:23:58.803Z,95985
2017-08-28T20:29:27.192Z,95991
2017-08-28T20:34:55.362Z,95984
2017-08-28T20:40:23.502Z,95989
2017-08-28T20:45:51.713Z,95988
2017-08-28T20:51:19.864Z,95992
2017-08-28T20:56:48.153Z,95981
2017-08-28T21:02:16.352Z,95986
2017-08-28T21:07:44.553Z,95977
2017-08-28T21:13:12.792Z,95979
2017-08-28T21:18:40.960Z,95987
2017-08-28T21:24:09.526Z,95981
2017-08-28T21:29:37.725Z,95979
2017-08-28T21:35:05.911Z,95976
2017-08-28T21:40:34.068Z,95974
2017-08-28T21:46:02.220Z,95987
2017-08-28T21:51:30.368Z,95971
2017-08-28T21:56:58.533Z,95977
2017-08-28T22:02:26.693Z,95973
2017-08-28T22:07:54.851Z,95974
2017-08-28T22:13:23.025Z,95965
2017-08-28T22:18:51.179Z,95966
2017-08-28T22:24:19.367Z,95966
2017-08-28T22:29:47.560Z,95967
2017-08-28T22:35:15.722Z,95973
2017-08-28T22:40:43.953Z,95963
2017-08-28T22:46:12.127Z,95967
2017-08-28T22:51:40.304Z,95964
2017-08-28T22:57:08.477Z,95962
2017-08-28T23:02:36.646Z,95958
2017-08-28T23:08:04.811Z,95956
2017-08-28T23:13:32.965Z,95952
2017-08-28T23:19:01.143Z,95946
2017-08-28T23:24:29.565Z,95952
2017-08-28T23:29:57.723Z,95950
2017-08-28T23:35:25.876Z,95952
2017-08-28T23:40:54.031Z,95946
2017-08-28T23:46:22.188Z,95941
2017-08-28T23:51:50.345Z,95936
2017-08-28T23:57:18.632Z,95944
